createdAt,value
2023-03-26T00:01:15.971Z,100208.94
2023-03-26T00:03:45.039Z,100213.84
2023-03-26T00:06:14.567Z,100207.22
2023-03-26T00:08:42.325Z,100216.25
2023-03-26T00:11:11.025Z,100216.91
2023-03-26T00:13:37.704Z,100210.50
2023-03-26T00:16:04.964Z,100216.16
2023-03-26T00:18:31.946Z,100223.16
2023-03-26T00:20:59.362Z,100230.34
2023-03-26T00:23:27.022Z,100229.28
2023-03-26T00:25:53.765Z,100225.75
2023-03-26T00:28:23.107Z,100234.34
2023-03-26T00:30:50.549Z,100241.78
2023-03-26T00:33:17.462Z,100243.50
2023-03-26T00:35:46.885Z,100249.03
2023-03-26T00:38:14.457Z,100243.16
2023-03-26T00:40:43.969Z,100247.72
2023-03-26T00:43:18.988Z,100259.06
2023-03-26T00:45:50.589Z,100255.59
2023-03-26T00:48:18.426Z,100248.78
2023-03-26T00:50:46.362Z,100248.78
2023-03-26T00:53:13.938Z,100261.88
2023-03-26T00:55:42.157Z,100264.25
2023-03-26T00:58:11.922Z,100267.94
2023-03-26T01:00:57.611Z,100257.25
2023-03-26T01:03:27.849Z,100259.03
2023-03-26T01:05:58.680Z,100251.56
2023-03-26T01:08:31.414Z,100245.88
2023-03-26T01:11:06.907Z,100244.84
2023-03-26T01:13:37.125Z,100251.03
2023-03-26T01:16:09.921Z,100259.16
2023-03-26T01:18:41.068Z,100258.69
2023-03-26T01:21:09.664Z,100268.97
2023-03-26T01:23:43.475Z,100265.81
2023-03-26T01:26:24.726Z,100269.34
2023-03-26T01:28:56.854Z,100264.69
2023-03-26T01:31:50.310Z,100275.34
2023-03-26T01:34:35.373Z,100268.53
2023-03-26T01:37:41.817Z,100266.06
2023-03-26T01:40:20.486Z,100266.56
2023-03-26T01:42:50.741Z,100268.47
2023-03-26T01:45:21.163Z,100261.31
2023-03-26T01:47:47.745Z,100264.78
2023-03-26T01:50:14.995Z,100262.84
2023-03-26T01:52:41.444Z,100261.72
2023-03-26T01:55:11.693Z,100258.38
2023-03-26T01:57:53.492Z,100265.88
2023-03-26T02:00:32.514Z,100266.38
2023-03-26T02:03:27.794Z,100267.06
2023-03-26T02:05:58.061Z,100265.50
2023-03-26T02:08:48.465Z,100263.38
2023-03-26T02:11:16.491Z,100271.13
2023-03-26T02:13:44.954Z,100272.13
2023-03-26T02:16:14.564Z,100265.19
2023-03-26T02:18:41.054Z,100268.84
2023-03-26T02:21:10.831Z,100258.78
2023-03-26T02:23:37.256Z,100259.50
2023-03-26T02:26:06.550Z,100254.47
2023-03-26T02:28:33.036Z,100258.38
2023-03-26T02:31:01.868Z,100252.34
2023-03-26T02:33:29.285Z,100245.41
2023-03-26T02:35:59.349Z,100244.28
2023-03-26T02:38:26.701Z,100247.28
2023-03-26T02:40:54.586Z,100239.22
2023-03-26T02:43:21.829Z,100234.56
2023-03-26T02:45:48.708Z,100243.94
2023-03-26T02:48:15.228Z,100236.41
2023-03-26T02:50:42.376Z,100237.72
2023-03-26T02:53:08.779Z,100234.53
2023-03-26T02:55:35.219Z,100229.59
2023-03-26T02:58:01.898Z,100231.63
2023-03-26T03:00:28.977Z,100236.75
2023-03-26T03:02:58.017Z,100231.94
2023-03-26T03:05:26.550Z,100229.72
2023-03-26T03:07:58.210Z,100229.94
2023-03-26T03:10:28.137Z,100232.16
2023-03-26T03:12:54.590Z,100224.28
2023-03-26T03:15:21.254Z,100223.66
2023-03-26T03:17:47.674Z,100234.00
2023-03-26T03:20:14.298Z,100228.53
2023-03-26T03:22:41.181Z,100220.53
2023-03-26T03:25:09.121Z,100227.16
2023-03-26T03:27:39.281Z,100221.84
2023-03-26T03:30:06.994Z,100229.06
2023-03-26T03:32:33.411Z,100233.69
2023-03-26T03:34:59.864Z,100224.28
2023-03-26T03:37:26.984Z,100229.31
2023-03-26T03:39:53.442Z,100229.00
2023-03-26T03:42:19.842Z,100222.59
2023-03-26T03:44:46.219Z,100231.50
2023-03-26T03:47:13.874Z,100226.00
2023-03-26T03:49:40.790Z,100234.84
2023-03-26T03:52:07.515Z,100234.94
2023-03-26T03:54:33.916Z,100221.66
2023-03-26T03:57:02.047Z,100233.44
2023-03-26T03:59:28.523Z,100229.00
2023-03-26T04:01:54.914Z,100224.09
2023-03-26T04:04:21.988Z,100230.91
2023-03-26T04:06:50.931Z,100238.66
2023-03-26T04:09:17.318Z,100235.91
2023-03-26T04:11:43.806Z,100232.56
2023-03-26T04:14:10.370Z,100234.19
2023-03-26T04:16:36.848Z,100224.84
2023-03-26T04:19:03.992Z,100231.56
2023-03-26T04:21:30.495Z,100225.63
2023-03-26T04:23:56.884Z,100226.53
2023-03-26T04:26:23.396Z,100228.50
2023-03-26T04:28:54.270Z,100228.38
2023-03-26T04:31:24.105Z,100221.66
2023-03-26T04:33:55.311Z,100223.75
2023-03-26T04:36:28.684Z,100218.31
2023-03-26T04:38:55.932Z,100224.00
2023-03-26T04:41:22.465Z,100210.66
2023-03-26T04:43:50.552Z,100213.56
2023-03-26T04:46:21.616Z,100216.06
2023-03-26T04:48:51.737Z,100209.66
2023-03-26T04:51:19.245Z,100208.66
2023-03-26T04:53:54.415Z,100208.81
2023-03-26T04:56:43.353Z,100214.91
2023-03-26T04:59:16.740Z,100215.00
2023-03-26T05:01:45.715Z,100217.06
2023-03-26T05:04:13.473Z,100220.97
2023-03-26T05:06:41.586Z,100216.50
2023-03-26T05:09:10.739Z,100221.94
2023-03-26T05:11:37.147Z,100229.94
2023-03-26T05:14:03.981Z,100221.97
2023-03-26T05:16:31.736Z,100224.47
2023-03-26T05:18:58.181Z,100229.63
2023-03-26T05:21:24.674Z,100222.25
2023-03-26T05:23:51.371Z,100219.47
2023-03-26T05:26:18.385Z,100225.66
2023-03-26T05:28:44.773Z,100214.25
2023-03-26T05:31:11.236Z,100221.31
2023-03-26T05:33:38.582Z,100212.63
2023-03-26T05:36:13.315Z,100221.88
2023-03-26T05:38:39.908Z,100221.13
2023-03-26T05:41:07.670Z,100229.28
2023-03-26T05:43:34.327Z,100216.81
2023-03-26T05:46:01.232Z,100219.97
2023-03-26T05:48:27.935Z,100231.09
2023-03-26T05:50:56.213Z,100226.47
2023-03-26T05:53:23.862Z,100234.03
2023-03-26T05:55:59.354Z,100229.78
2023-03-26T05:58:30.816Z,100233.44
2023-03-26T06:01:02.635Z,100230.50
2023-03-26T06:03:29.201Z,100232.81
2023-03-26T06:05:56.326Z,100230.44
2023-03-26T06:08:22.720Z,100223.59
2023-03-26T06:10:50.681Z,100218.53
2023-03-26T06:13:17.753Z,100214.84
2023-03-26T06:15:44.331Z,100217.53
2023-03-26T06:18:11.105Z,100216.03
2023-03-26T06:20:37.530Z,100212.88
2023-03-26T06:23:03.996Z,100211.91
2023-03-26T06:25:30.813Z,100212.44
2023-03-26T06:27:57.171Z,100208.72
2023-03-26T06:30:23.618Z,100211.47
2023-03-26T06:32:50.129Z,100210.63
2023-03-26T06:35:17.092Z,100217.34
2023-03-26T06:37:43.636Z,100219.25
2023-03-26T06:40:10.680Z,100227.31
2023-03-26T06:43:08.088Z,100227.91
2023-03-26T06:45:23.449Z,100223.03
2023-03-26T06:47:49.867Z,100218.47
2023-03-26T06:50:16.432Z,100228.25
2023-03-26T06:52:42.847Z,100226.69
2023-03-26T06:55:10.387Z,100233.63
2023-03-26T06:57:37.259Z,100231.56
2023-03-26T07:00:05.239Z,100234.78
2023-03-26T07:02:31.876Z,100237.59
2023-03-26T07:04:58.415Z,100239.81
2023-03-26T07:07:24.814Z,100236.13
2023-03-26T07:09:51.709Z,100231.66
2023-03-26T07:12:18.350Z,100233.16
2023-03-26T07:14:44.760Z,100236.59
2023-03-26T07:17:11.210Z,100230.09
2023-03-26T07:19:37.684Z,100221.06
2023-03-26T07:22:04.346Z,100223.19
2023-03-26T07:24:31.418Z,100222.53
2023-03-26T07:27:12.190Z,100217.53
2023-03-26T07:29:41.566Z,100214.41
2023-03-26T07:32:26.783Z,100221.91
2023-03-26T07:35:05.349Z,100215.81
2023-03-26T07:37:31.621Z,100212.97
2023-03-26T07:40:40.354Z,100216.28
2023-03-26T07:43:32.855Z,100218.28
2023-03-26T07:45:59.491Z,100221.75
2023-03-26T07:48:27.708Z,100217.81
2023-03-26T07:50:55.438Z,100216.53
2023-03-26T07:53:23.009Z,100211.47
2023-03-26T07:55:53.537Z,100215.31
2023-03-26T07:58:33.526Z,100212.63
2023-03-26T08:01:15.489Z,100213.06
2023-03-26T08:04:00.598Z,100223.41
2023-03-26T08:06:53.048Z,100218.72
2023-03-26T08:09:35.674Z,100219.59
2023-03-26T08:12:24.520Z,100220.00
2023-03-26T08:15:21.748Z,100209.88
2023-03-26T08:17:54.582Z,100213.06
2023-03-26T08:20:28.616Z,100205.00
2023-03-26T08:23:06.032Z,100205.50
2023-03-26T08:25:36.082Z,100211.25
2023-03-26T08:28:08.642Z,100217.91
2023-03-26T08:30:36.022Z,100216.19
2023-03-26T08:33:11.142Z,100215.22
2023-03-26T08:35:42.326Z,100212.03
2023-03-26T08:38:09.982Z,100213.59
2023-03-26T08:40:55.477Z,100211.06
2023-03-26T08:43:30.942Z,100226.97
2023-03-26T08:46:26.325Z,100222.16
2023-03-26T08:49:29.582Z,100229.53
2023-03-26T08:52:20.091Z,100224.50
2023-03-26T08:55:14.327Z,100227.16
2023-03-26T08:58:08.841Z,100234.44
2023-03-26T09:01:05.723Z,100226.56
2023-03-26T09:03:55.589Z,100225.16
2023-03-26T09:06:31.370Z,100225.38
2023-03-26T09:09:39.763Z,100232.41
2023-03-26T09:12:28.158Z,100230.09
2023-03-26T09:15:11.344Z,100227.56
2023-03-26T09:17:45.897Z,100232.28
2023-03-26T09:20:49.900Z,100235.41
2023-03-26T09:23:36.362Z,100231.13
2023-03-26T09:26:19.003Z,100231.91
2023-03-26T09:29:00.764Z,100235.41
2023-03-26T09:31:41.201Z,100234.34
2023-03-26T09:34:26.255Z,100234.88
2023-03-26T09:37:18.759Z,100235.91
2023-03-26T09:39:53.176Z,100240.72
2023-03-26T09:42:31.770Z,100232.78
2023-03-26T09:45:16.759Z,100231.53
2023-03-26T09:47:53.850Z,100231.22
2023-03-26T09:50:46.233Z,100236.59
2023-03-26T09:53:33.781Z,100236.63
2023-03-26T09:56:26.455Z,100236.16
2023-03-26T09:59:22.860Z,100240.22
2023-03-26T10:02:00.319Z,100244.13
2023-03-26T10:04:59.648Z,100246.88
2023-03-26T10:07:45.271Z,100240.22
2023-03-26T10:10:33.681Z,100242.56
2023-03-26T10:13:14.542Z,100250.47
2023-03-26T10:16:21.415Z,100240.19
2023-03-26T10:19:00.855Z,100241.16
2023-03-26T10:21:44.496Z,100238.06
2023-03-26T10:24:18.805Z,100244.06
2023-03-26T10:27:09.955Z,100236.28
2023-03-26T10:29:55.784Z,100234.88
2023-03-26T10:32:53.347Z,100234.59
2023-03-26T10:35:37.280Z,100226.13
2023-03-26T10:38:35.605Z,100237.16
2023-03-26T10:41:26.506Z,100229.34
2023-03-26T10:44:15.782Z,100232.53
2023-03-26T10:47:16.001Z,100230.91
2023-03-26T10:50:07.061Z,100230.63
2023-03-26T10:52:38.143Z,100229.22
2023-03-26T10:55:13.323Z,100237.81
2023-03-26T10:58:10.189Z,100231.25
2023-03-26T11:00:41.598Z,100230.72
2023-03-26T11:03:21.209Z,100229.41
2023-03-26T11:06:04.358Z,100228.38
2023-03-26T11:09:01.882Z,100236.66
2023-03-26T11:11:38.623Z,100233.19
2023-03-26T11:14:13.781Z,100235.19
2023-03-26T11:16:51.346Z,100242.25
2023-03-26T11:19:49.426Z,100242.94
2023-03-26T11:22:25.648Z,100236.25
2023-03-26T11:25:35.119Z,100235.16
2023-03-26T11:28:16.364Z,100243.63
2023-03-26T11:30:49.004Z,100250.25
2023-03-26T11:33:20.298Z,100242.47
2023-03-26T11:35:51.759Z,100240.53
2023-03-26T11:38:38.661Z,100245.44
2023-03-26T11:41:13.246Z,100243.06
2023-03-26T11:43:39.601Z,100236.81
2023-03-26T11:46:10.377Z,100247.31
2023-03-26T11:48:49.067Z,100242.38
2023-03-26T11:51:23.513Z,100242.81
2023-03-26T11:53:50.098Z,100235.22
2023-03-26T11:56:27.768Z,100234.72
2023-03-26T11:58:57.052Z,100234.31
2023-03-26T12:01:31.968Z,100241.75
2023-03-26T12:04:14.458Z,100223.22
2023-03-26T12:06:52.175Z,100232.63
2023-03-26T12:09:19.724Z,100226.31
2023-03-26T12:11:48.044Z,100220.72
2023-03-26T12:14:19.490Z,100233.88
2023-03-26T12:17:05.749Z,100225.28
2023-03-26T12:19:45.394Z,100238.84
2023-03-26T12:22:43.433Z,100220.63
2023-03-26T12:25:24.530Z,100238.19
2023-03-26T12:28:14.023Z,100223.78
2023-03-26T12:30:42.274Z,100218.53
2023-03-26T12:33:29.373Z,100228.81
2023-03-26T12:35:58.078Z,100225.47
2023-03-26T12:38:33.808Z,100216.41
2023-03-26T12:42:52.811Z,100226.41
2023-03-26T12:44:55.608Z,100225.03
2023-03-26T12:47:57.272Z,100215.66
2023-03-26T12:50:06.421Z,100220.78
2023-03-26T12:52:47.843Z,100224.31
2023-03-26T12:55:36.884Z,100220.63
2023-03-26T12:58:41.028Z,100222.88
2023-03-26T13:01:19.311Z,100223.50
2023-03-26T13:04:01.750Z,100220.91
2023-03-26T13:07:00.621Z,100229.63
2023-03-26T13:09:55.222Z,100230.47
2023-03-26T13:12:27.679Z,100225.69
2023-03-26T13:15:15.016Z,100224.69
2023-03-26T13:18:03.914Z,100226.97
2023-03-26T13:21:12.122Z,100222.50
2023-03-26T13:23:52.004Z,100224.75
2023-03-26T13:26:36.701Z,100219.47
2023-03-26T13:29:17.413Z,100221.75
2023-03-26T13:32:01.778Z,100219.75
2023-03-26T13:34:55.892Z,100211.91
2023-03-26T13:37:44.624Z,100203.91
2023-03-26T13:40:37.883Z,100208.91
2023-03-26T13:43:42.868Z,100228.84
2023-03-26T13:46:09.281Z,100225.44
2023-03-26T13:48:52.859Z,100220.66
2023-03-26T13:51:27.584Z,100213.09
2023-03-26T13:54:12.272Z,100215.94
2023-03-26T13:56:43.366Z,100219.81
2023-03-26T13:59:19.549Z,100211.19
2023-03-26T14:02:21.912Z,100212.53
2023-03-26T14:04:52.559Z,100216.81
2023-03-26T14:07:23.661Z,100215.75
2023-03-26T14:10:10.569Z,100219.59
2023-03-26T14:12:56.185Z,100215.19
2023-03-26T14:15:27.589Z,100220.41
2023-03-26T14:18:06.716Z,100218.47
2023-03-26T14:20:50.288Z,100220.88
2023-03-26T14:23:30.913Z,100224.31
2023-03-26T14:26:06.739Z,100229.41
2023-03-26T14:28:55.088Z,100232.00
2023-03-26T14:31:51.648Z,100235.28
2023-03-26T14:34:30.285Z,100218.72
2023-03-26T14:37:29.195Z,100238.72
2023-03-26T14:40:36.404Z,100236.63
2023-03-26T14:43:25.047Z,100234.00
2023-03-26T14:45:58.391Z,100231.94
2023-03-26T14:48:37.063Z,100237.28
2023-03-26T14:51:13.071Z,100242.22
2023-03-26T14:53:48.873Z,100229.78
2023-03-26T14:56:27.546Z,100247.28
2023-03-26T14:59:09.064Z,100258.88
2023-03-26T15:02:03.702Z,100253.75
2023-03-26T15:04:48.869Z,100261.13
2023-03-26T15:07:27.090Z,100248.44
2023-03-26T15:10:15.364Z,100263.78
2023-03-26T15:12:54.551Z,100249.63
2023-03-26T15:15:54.446Z,100253.00
2023-03-26T15:18:54.897Z,100257.19
2023-03-26T15:21:51.056Z,100248.97
2023-03-26T15:24:38.316Z,100258.47
2023-03-26T15:27:24.627Z,100250.16
2023-03-26T15:30:15.936Z,100270.22
2023-03-26T15:33:05.209Z,100278.78
2023-03-26T15:35:57.374Z,100260.84
2023-03-26T15:38:46.455Z,100282.72
2023-03-26T15:41:17.545Z,100274.72
2023-03-26T15:44:25.533Z,100266.06
2023-03-26T15:47:31.693Z,100270.38
2023-03-26T15:50:23.372Z,100276.47
2023-03-26T15:52:57.130Z,100274.16
2023-03-26T15:55:45.806Z,100290.66
2023-03-26T15:58:22.433Z,100286.72
2023-03-26T16:01:33.797Z,100302.19
2023-03-26T16:04:09.154Z,100293.56
2023-03-26T16:06:58.980Z,100300.44
2023-03-26T16:09:53.381Z,100295.63
2023-03-26T16:12:31.685Z,100303.13
2023-03-26T16:15:11.633Z,100292.69
2023-03-26T16:18:10.287Z,100304.50
2023-03-26T16:20:50.673Z,100304.19
2023-03-26T16:23:30.423Z,100309.81
2023-03-26T16:26:18.981Z,100312.44
2023-03-26T16:28:45.277Z,100323.03
2023-03-26T16:31:36.589Z,100329.09
2023-03-26T16:34:09.281Z,100322.84
2023-03-26T16:36:36.934Z,100334.66
2023-03-26T16:39:07.286Z,100324.09
2023-03-26T16:41:45.144Z,100326.53
2023-03-26T16:44:27.982Z,100325.78
2023-03-26T16:47:00.387Z,100340.09
2023-03-26T16:49:45.827Z,100341.13
2023-03-26T16:52:32.760Z,100350.00
2023-03-26T16:55:18.636Z,100342.16
2023-03-26T16:58:04.591Z,100349.44
2023-03-26T17:00:41.841Z,100350.94
2023-03-26T17:03:18.434Z,100365.28
2023-03-26T17:06:06.188Z,100341.34
2023-03-26T17:08:48.655Z,100384.75
2023-03-26T17:11:36.099Z,100369.88
2023-03-26T17:14:41.724Z,100368.16
2023-03-26T17:17:33.364Z,100375.88
2023-03-26T17:20:08.963Z,100382.53
2023-03-26T17:22:41.858Z,100384.41
2023-03-26T17:25:29.743Z,100403.31
2023-03-26T17:28:14.783Z,100387.50
2023-03-26T17:30:54.629Z,100399.25
2023-03-26T17:33:25.361Z,100407.13
2023-03-26T17:36:11.771Z,100397.69
2023-03-26T17:38:45.447Z,100393.34
2023-03-26T17:41:13.967Z,100402.53
2023-03-26T17:43:43.838Z,100415.81
2023-03-26T17:46:30.281Z,100421.81
2023-03-26T17:48:59.512Z,100425.81
2023-03-26T17:51:38.253Z,100415.31
2023-03-26T17:54:08.299Z,100439.94
2023-03-26T17:56:37.582Z,100437.34
2023-03-26T17:59:12.377Z,100428.72
2023-03-26T18:01:41.388Z,100450.03
2023-03-26T18:04:19.771Z,100436.03
2023-03-26T18:06:58.469Z,100454.50
2023-03-26T18:09:48.166Z,100459.22
2023-03-26T18:12:37.118Z,100470.59
2023-03-26T18:15:31.884Z,100464.56
2023-03-26T18:18:44.600Z,100464.72
2023-03-26T18:21:17.941Z,100474.47
2023-03-26T18:23:47.446Z,100482.19
2023-03-26T18:26:16.338Z,100482.91
2023-03-26T18:28:45.891Z,100485.13
2023-03-26T18:31:23.283Z,100487.88
2023-03-26T18:33:55.038Z,100504.22
2023-03-26T18:36:24.575Z,100509.53
2023-03-26T18:38:51.689Z,100493.63
2023-03-26T18:41:31.125Z,100492.13
2023-03-26T18:44:02.333Z,100491.41
2023-03-26T18:46:29.117Z,100501.22
2023-03-26T18:48:56.841Z,100508.78
2023-03-26T18:51:26.031Z,100507.25
2023-03-26T18:53:56.324Z,100502.91
2023-03-26T18:56:42.521Z,100508.78
2023-03-26T18:59:28.852Z,100506.28
2023-03-26T19:01:59.259Z,100518.09
2023-03-26T19:04:26.705Z,100512.31
2023-03-26T19:06:54.731Z,100524.13
2023-03-26T19:09:31.219Z,100531.97
2023-03-26T19:12:16.225Z,100527.91
2023-03-26T19:15:13.854Z,100527.38
2023-03-26T19:17:44.177Z,100526.31
2023-03-26T19:20:16.811Z,100530.91
2023-03-26T19:22:44.649Z,100536.22
2023-03-26T19:25:20.336Z,100526.31
2023-03-26T19:27:46.804Z,100532.38
2023-03-26T19:30:38.869Z,100535.31
2023-03-26T19:33:16.282Z,100545.19
2023-03-26T19:35:44.010Z,100533.13
2023-03-26T19:38:29.738Z,100549.34
2023-03-26T19:40:57.783Z,100547.94
2023-03-26T19:43:25.696Z,100559.72
2023-03-26T19:46:00.488Z,100560.00
2023-03-26T19:48:45.401Z,100566.47
2023-03-26T19:51:19.887Z,100551.69
2023-03-26T19:53:49.623Z,100570.28
2023-03-26T19:56:18.514Z,100574.84
2023-03-26T19:58:45.078Z,100574.06
2023-03-26T20:01:23.611Z,100576.31
2023-03-26T20:03:58.007Z,100570.28
2023-03-26T20:08:57.881Z,100580.88
2023-03-26T20:11:34.145Z,100582.41
2023-03-26T20:14:01.434Z,100580.13
2023-03-26T20:16:33.438Z,100593.00
2023-03-26T20:19:04.044Z,100595.19
2023-03-26T20:21:41.340Z,100588.84
2023-03-26T20:24:14.619Z,100596.72
2023-03-26T20:26:41.369Z,100592.56
2023-03-26T20:29:07.801Z,100599.78
2023-03-26T20:31:34.405Z,100600.94
2023-03-26T20:34:01.054Z,100613.41
2023-03-26T20:36:33.591Z,100607.34
2023-03-26T20:39:05.850Z,100610.38
2023-03-26T20:41:33.707Z,100622.53
2023-03-26T20:44:00.379Z,100624.78
2023-03-26T20:46:30.911Z,100620.97
2023-03-26T20:48:59.645Z,100631.56
2023-03-26T20:51:28.260Z,100624.41
2023-03-26T20:53:55.576Z,100639.94
2023-03-26T20:56:22.019Z,100633.88
2023-03-26T20:58:52.682Z,100636.13
2023-03-26T21:01:27.728Z,100636.50
2023-03-26T21:03:54.267Z,100634.63
2023-03-26T21:06:20.658Z,100646.69
2023-03-26T21:08:47.286Z,100642.91
2023-03-26T21:11:39.480Z,100645.59
2023-03-26T21:14:25.446Z,100650.50
2023-03-26T21:16:52.498Z,100653.53
2023-03-26T21:19:19.191Z,100667.19
2023-03-26T21:21:58.930Z,100660.34
2023-03-26T21:24:53.992Z,100664.16
2023-03-26T21:27:36.041Z,100658.09
2023-03-26T21:30:04.146Z,100663.78
2023-03-26T21:32:31.561Z,100660.75
2023-03-26T21:34:59.552Z,100682.28
2023-03-26T21:37:26.820Z,100677.00
2023-03-26T21:39:53.396Z,100689.09
2023-03-26T21:42:20.087Z,100695.91
2023-03-26T21:44:46.805Z,100699.69
2023-03-26T21:47:13.624Z,100709.53
2023-03-26T21:49:40.583Z,100717.06
2023-03-26T21:52:07.497Z,100704.25
2023-03-26T21:54:34.219Z,100708.78
2023-03-26T21:57:06.925Z,100716.34
2023-03-26T21:59:39.076Z,100726.91
2023-03-26T22:02:30.529Z,100729.16
2023-03-26T22:05:01.051Z,100729.16
2023-03-26T22:07:33.945Z,100737.09
2023-03-26T22:10:00.482Z,100732.56
2023-03-26T22:12:26.914Z,100737.44
2023-03-26T22:14:53.480Z,100743.13
2023-03-26T22:17:19.882Z,100746.16
2023-03-26T22:19:46.245Z,100734.41
2023-03-26T22:22:12.970Z,100751.03
2023-03-26T22:24:39.361Z,100765.44
2023-03-26T22:27:06.308Z,100763.13
2023-03-26T22:29:33.549Z,100763.94
2023-03-26T22:32:00.244Z,100775.31
2023-03-26T22:34:26.615Z,100779.06
2023-03-26T22:36:53.323Z,100780.53
2023-03-26T22:39:19.739Z,100785.50
2023-03-26T22:41:46.142Z,100785.03
2023-03-26T22:44:20.214Z,100790.41
2023-03-26T22:46:49.503Z,100802.50
2023-03-26T22:49:16.431Z,100801.31
2023-03-26T22:51:42.866Z,100800.16
2023-03-26T22:54:09.524Z,100809.31
2023-03-26T22:56:37.039Z,100808.56
2023-03-26T22:59:03.734Z,100808.56
2023-03-26T23:01:30.587Z,100813.44
2023-03-26T23:03:57.699Z,100818.69
2023-03-26T23:06:24.144Z,100824.75
2023-03-26T23:08:51.226Z,100825.09
2023-03-26T23:11:19.481Z,100833.09
2023-03-26T23:13:46.583Z,100833.81
2023-03-26T23:16:14.335Z,100836.41
2023-03-26T23:18:41.209Z,100831.09
2023-03-26T23:21:16.605Z,100833.75
2023-03-26T23:23:43.040Z,100851.50
2023-03-26T23:26:09.520Z,100847.00
2023-03-26T23:28:36.265Z,100855.69
2023-03-26T23:31:07.528Z,100851.50
2023-03-26T23:33:36.311Z,100857.56
2023-03-26T23:36:08.738Z,100863.28
2023-03-26T23:38:43.552Z,100860.97
2023-03-26T23:41:15.259Z,100875.00
2023-03-26T23:43:53.998Z,100871.31
2023-03-26T23:46:32.957Z,100865.97
2023-03-26T23:49:02.649Z,100868.94
2023-03-26T23:51:30.309Z,100878.84
2023-03-26T23:53:56.955Z,100877.28
2023-03-26T23:56:23.696Z,100884.50
2023-03-26T23:58:50.115Z,100882.34
